sensor_id;sensor_type;location;lat;lon;timestamp;P1;durP1;ratioP1;P2;durP2;ratioP2
18659;SDS011;9459;50.254;19.014;2024-01-10T00:01:24;83.85;;;32.40;;
18659;SDS011;9459;50.254;19.014;2024-01-10T00:03:54;71.55;;;26.45;;
18659;SDS011;9459;50.254;19.014;2024-01-10T00:06:24;96.82;;;38.15;;
18659;SDS011;9459;50.254;19.014;2024-01-10T00:08:52;100.05;;;37.53;;
18659;SDS011;9459;50.254;19.014;2024-01-10T00:11:21;98.78;;;36.53;;
18659;SDS011;9459;50.254;19.014;2024-01-10T00:13:50;105.00;;;39.20;;
18659;SDS011;9459;50.254;19.014;2024-01-10T00:16:18;102.43;;;37.30;;
18659;SDS011;9459;50.254;19.014;2024-01-10T00:18:48;100.07;;;35.63;;
18659;SDS011;9459;50.254;19.014;2024-01-10T00:21:17;106.55;;;39.30;;
18659;SDS011;9459;50.254;19.014;2024-01-10T00:23:46;93.97;;;37.08;;
18659;SDS011;9459;50.254;19.014;2024-01-10T00:26:15;97.22;;;34.60;;
18659;SDS011;9459;50.254;19.014;2024-01-10T00:28:44;111.32;;;37.67;;
18659;SDS011;9459;50.254;19.014;2024-01-10T00:31:13;104.03;;;36.97;;
18659;SDS011;9459;50.254;19.014;2024-01-10T00:33:41;94.35;;;34.40;;
18659;SDS011;9459;50.254;19.014;2024-01-10T00:36:10;87.95;;;35.22;;
18659;SDS011;9459;50.254;19.014;2024-01-10T00:38:39;102.00;;;35.28;;
18659;SDS011;9459;50.254;19.014;2024-01-10T00:41:10;102.90;;;37.30;;
18659;SDS011;9459;50.254;19.014;2024-01-10T00:43:40;96.70;;;36.03;;
18659;SDS011;9459;50.254;19.014;2024-01-10T00:46:08;103.80;;;37.08;;
18659;SDS011;9459;50.254;19.014;2024-01-10T00:48:38;103.05;;;36.63;;
18659;SDS011;9459;50.254;19.014;2024-01-10T00:51:07;106.05;;;37.67;;
18659;SDS011;9459;50.254;19.014;2024-01-10T00:53:36;102.45;;;38.72;;
18659;SDS011;9459;50.254;19.014;2024-01-10T00:56:12;99.60;;;38.75;;
18659;SDS011;9459;50.254;19.014;2024-01-10T00:58:40;112.50;;;39.42;;
18659;SDS011;9459;50.254;19.014;2024-01-10T01:01:09;117.40;;;40.80;;
18659;SDS011;9459;50.254;19.014;2024-01-10T01:03:39;107.90;;;40.08;;
18659;SDS011;9459;50.254;19.014;2024-01-10T01:06:08;107.53;;;38.13;;
18659;SDS011;9459;50.254;19.014;2024-01-10T01:08:36;100.13;;;38.85;;
18659;SDS011;9459;50.254;19.014;2024-01-10T01:11:05;115.70;;;40.53;;
18659;SDS011;9459;50.254;19.014;2024-01-10T01:13:35;110.20;;;39.85;;
18659;SDS011;9459;50.254;19.014;2024-01-10T01:16:04;116.47;;;41.40;;
18659;SDS011;9459;50.254;19.014;2024-01-10T01:18:34;115.35;;;41.42;;
18659;SDS011;9459;50.254;19.014;2024-01-10T01:21:03;104.83;;;39.83;;
18659;SDS011;9459;50.254;19.014;2024-01-10T01:23:31;101.38;;;38.55;;
18659;SDS011;9459;50.254;19.014;2024-01-10T01:26:08;111.50;;;40.40;;
18659;SDS011;9459;50.254;19.014;2024-01-10T01:28:38;113.30;;;39.13;;
18659;SDS011;9459;50.254;19.014;2024-01-10T01:31:09;109.35;;;40.90;;
18659;SDS011;9459;50.254;19.014;2024-01-10T01:33:38;112.65;;;42.45;;
18659;SDS011;9459;50.254;19.014;2024-01-10T01:36:12;118.35;;;43.25;;
18659;SDS011;9459;50.254;19.014;2024-01-10T01:38:40;106.35;;;40.50;;
18659;SDS011;9459;50.254;19.014;2024-01-10T01:41:11;109.07;;;39.45;;
18659;SDS011;9459;50.254;19.014;2024-01-10T01:43:43;118.38;;;40.95;;
18659;SDS011;9459;50.254;19.014;2024-01-10T01:46:12;112.65;;;41.75;;
18659;SDS011;9459;50.254;19.014;2024-01-10T01:48:41;131.73;;;42.95;;
18659;SDS011;9459;50.254;19.014;2024-01-10T01:51:11;111.03;;;44.42;;
18659;SDS011;9459;50.254;19.014;2024-01-10T01:53:40;108.10;;;41.60;;
18659;SDS011;9459;50.254;19.014;2024-01-10T01:56:11;119.22;;;41.55;;
18659;SDS011;9459;50.254;19.014;2024-01-10T01:58:43;119.35;;;43.75;;
18659;SDS011;9459;50.254;19.014;2024-01-10T02:01:12;116.47;;;42.75;;
18659;SDS011;9459;50.254;19.014;2024-01-10T02:03:42;118.50;;;42.80;;
18659;SDS011;9459;50.254;19.014;2024-01-10T02:06:11;109.05;;;41.05;;
18659;SDS011;9459;50.254;19.014;2024-01-10T02:08:40;124.05;;;43.70;;
18659;SDS011;9459;50.254;19.014;2024-01-10T02:11:09;121.75;;;43.63;;
18659;SDS011;9459;50.254;19.014;2024-01-10T02:13:40;118.13;;;42.63;;
18659;SDS011;9459;50.254;19.014;2024-01-10T02:16:10;112.03;;;43.58;;
18659;SDS011;9459;50.254;19.014;2024-01-10T02:18:39;114.45;;;43.72;;
18659;SDS011;9459;50.254;19.014;2024-01-10T02:21:08;126.35;;;45.30;;
18659;SDS011;9459;50.254;19.014;2024-01-10T02:23:37;117.22;;;41.72;;
18659;SDS011;9459;50.254;19.014;2024-01-10T02:26:07;120.35;;;43.08;;
18659;SDS011;9459;50.254;19.014;2024-01-10T02:28:35;132.93;;;46.88;;
18659;SDS011;9459;50.254;19.014;2024-01-10T02:31:04;128.20;;;45.65;;
18659;SDS011;9459;50.254;19.014;2024-01-10T02:33:32;121.60;;;45.78;;
18659;SDS011;9459;50.254;19.014;2024-01-10T02:36:02;118.85;;;45.40;;
18659;SDS011;9459;50.254;19.014;2024-01-10T02:38:31;121.43;;;44.88;;
18659;SDS011;9459;50.254;19.014;2024-01-10T02:41:00;130.40;;;45.38;;
18659;SDS011;9459;50.254;19.014;2024-01-10T02:43:31;99.57;;;35.47;;
18659;SDS011;9459;50.254;19.014;2024-01-10T02:45:59;125.60;;;47.22;;
18659;SDS011;9459;50.254;19.014;2024-01-10T02:48:27;126.70;;;46.20;;
18659;SDS011;9459;50.254;19.014;2024-01-10T02:50:57;113.13;;;45.90;;
18659;SDS011;9459;50.254;19.014;2024-01-10T02:53:25;115.45;;;46.13;;
18659;SDS011;9459;50.254;19.014;2024-01-10T02:55:54;127.28;;;48.15;;
18659;SDS011;9459;50.254;19.014;2024-01-10T02:58:22;124.97;;;46.88;;
18659;SDS011;9459;50.254;19.014;2024-01-10T03:00:54;117.32;;;46.50;;
18659;SDS011;9459;50.254;19.014;2024-01-10T03:03:24;111.93;;;46.42;;
18659;SDS011;9459;50.254;19.014;2024-01-10T03:05:53;116.32;;;46.30;;
18659;SDS011;9459;50.254;19.014;2024-01-10T03:08:21;120.40;;;45.78;;
18659;SDS011;9459;50.254;19.014;2024-01-10T03:10:51;120.47;;;47.25;;
18659;SDS011;9459;50.254;19.014;2024-01-10T03:13:19;123.28;;;46.97;;
18659;SDS011;9459;50.254;19.014;2024-01-10T03:15:48;126.35;;;46.35;;
18659;SDS011;9459;50.254;19.014;2024-01-10T03:18:18;126.38;;;47.55;;
18659;SDS011;9459;50.254;19.014;2024-01-10T03:20:46;132.85;;;47.30;;
18659;SDS011;9459;50.254;19.014;2024-01-10T03:23:15;123.88;;;47.97;;
18659;SDS011;9459;50.254;19.014;2024-01-10T03:25:44;118.90;;;47.63;;
18659;SDS011;9459;50.254;19.014;2024-01-10T03:28:15;124.85;;;45.85;;
18659;SDS011;9459;50.254;19.014;2024-01-10T03:30:44;124.43;;;46.38;;
18659;SDS011;9459;50.254;19.014;2024-01-10T03:33:13;117.25;;;46.70;;
18659;SDS011;9459;50.254;19.014;2024-01-10T03:35:45;125.68;;;46.95;;
18659;SDS011;9459;50.254;19.014;2024-01-10T03:38:16;125.97;;;45.92;;
18659;SDS011;9459;50.254;19.014;2024-01-10T03:40:47;116.45;;;44.28;;
18659;SDS011;9459;50.254;19.014;2024-01-10T03:43:19;113.63;;;44.63;;
18659;SDS011;9459;50.254;19.014;2024-01-10T03:45:48;115.68;;;44.15;;
18659;SDS011;9459;50.254;19.014;2024-01-10T03:48:16;119.18;;;44.33;;
18659;SDS011;9459;50.254;19.014;2024-01-10T03:50:46;125.30;;;44.50;;
18659;SDS011;9459;50.254;19.014;2024-01-10T03:53:14;115.10;;;43.63;;
18659;SDS011;9459;50.254;19.014;2024-01-10T03:55:43;123.03;;;44.95;;
18659;SDS011;9459;50.254;19.014;2024-01-10T03:58:11;129.35;;;46.78;;
18659;SDS011;9459;50.254;19.014;2024-01-10T04:00:40;125.75;;;45.67;;
18659;SDS011;9459;50.254;19.014;2024-01-10T04:03:08;118.82;;;47.13;;
18659;SDS011;9459;50.254;19.014;2024-01-10T04:05:37;120.97;;;45.70;;
18659;SDS011;9459;50.254;19.014;2024-01-10T04:08:07;120.10;;;45.17;;
18659;SDS011;9459;50.254;19.014;2024-01-10T04:10:36;120.78;;;45.53;;
18659;SDS011;9459;50.254;19.014;2024-01-10T04:13:05;124.03;;;47.90;;
18659;SDS011;9459;50.254;19.014;2024-01-10T04:15:33;124.85;;;46.90;;
18659;SDS011;9459;50.254;19.014;2024-01-10T04:18:02;138.93;;;50.15;;
18659;SDS011;9459;50.254;19.014;2024-01-10T04:20:31;133.70;;;48.35;;
18659;SDS011;9459;50.254;19.014;2024-01-10T04:23:01;124.72;;;48.47;;
18659;SDS011;9459;50.254;19.014;2024-01-10T04:25:31;129.02;;;50.00;;
18659;SDS011;9459;50.254;19.014;2024-01-10T04:27:59;130.73;;;50.50;;
18659;SDS011;9459;50.254;19.014;2024-01-10T04:30:28;139.48;;;50.05;;
18659;SDS011;9459;50.254;19.014;2024-01-10T04:32:57;137.52;;;48.92;;
18659;SDS011;9459;50.254;19.014;2024-01-10T04:35:26;125.65;;;48.65;;
18659;SDS011;9459;50.254;19.014;2024-01-10T04:37:55;141.65;;;50.72;;
18659;SDS011;9459;50.254;19.014;2024-01-10T04:40:24;129.68;;;48.45;;
18659;SDS011;9459;50.254;19.014;2024-01-10T04:42:53;131.95;;;49.40;;
18659;SDS011;9459;50.254;19.014;2024-01-10T04:45:22;107.05;;;39.42;;
18659;SDS011;9459;50.254;19.014;2024-01-10T04:47:50;136.40;;;49.75;;
18659;SDS011;9459;50.254;19.014;2024-01-10T04:50:19;131.98;;;49.72;;
18659;SDS011;9459;50.254;19.014;2024-01-10T04:52:47;123.80;;;47.85;;
18659;SDS011;9459;50.254;19.014;2024-01-10T04:55:16;143.40;;;49.95;;
18659;SDS011;9459;50.254;19.014;2024-01-10T04:57:46;147.07;;;55.25;;
18659;SDS011;9459;50.254;19.014;2024-01-10T05:00:18;152.35;;;54.35;;
18659;SDS011;9459;50.254;19.014;2024-01-10T05:02:47;141.00;;;51.10;;
18659;SDS011;9459;50.254;19.014;2024-01-10T05:05:19;136.65;;;51.50;;
18659;SDS011;9459;50.254;19.014;2024-01-10T05:07:51;147.88;;;55.80;;
18659;SDS011;9459;50.254;19.014;2024-01-10T05:10:20;138.27;;;54.03;;
18659;SDS011;9459;50.254;19.014;2024-01-10T05:12:48;142.70;;;53.97;;
18659;SDS011;9459;50.254;19.014;2024-01-10T05:15:18;149.57;;;55.47;;
18659;SDS011;9459;50.254;19.014;2024-01-10T05:17:47;110.45;;;41.92;;
18659;SDS011;9459;50.254;19.014;2024-01-10T05:20:15;159.35;;;58.92;;
18659;SDS011;9459;50.254;19.014;2024-01-10T05:22:44;154.30;;;58.20;;
18659;SDS011;9459;50.254;19.014;2024-01-10T05:25:13;144.23;;;59.45;;
18659;SDS011;9459;50.254;19.014;2024-01-10T05:27:45;158.95;;;59.80;;
18659;SDS011;9459;50.254;19.014;2024-01-10T05:30:14;178.25;;;63.00;;
18659;SDS011;9459;50.254;19.014;2024-01-10T05:32:44;205.85;;;74.63;;
18659;SDS011;9459;50.254;19.014;2024-01-10T05:35:13;177.35;;;66.00;;
18659;SDS011;9459;50.254;19.014;2024-01-10T05:37:42;180.07;;;68.18;;
18659;SDS011;9459;50.254;19.014;2024-01-10T05:40:11;162.95;;;62.85;;
18659;SDS011;9459;50.254;19.014;2024-01-10T05:42:39;164.95;;;63.63;;
18659;SDS011;9459;50.254;19.014;2024-01-10T05:45:08;155.65;;;61.35;;
18659;SDS011;9459;50.254;19.014;2024-01-10T05:47:37;178.40;;;63.92;;
18659;SDS011;9459;50.254;19.014;2024-01-10T05:50:08;166.00;;;64.10;;
18659;SDS011;9459;50.254;19.014;2024-01-10T05:52:37;165.15;;;62.80;;
18659;SDS011;9459;50.254;19.014;2024-01-10T05:55:06;154.52;;;63.00;;
18659;SDS011;9459;50.254;19.014;2024-01-10T05:57:35;181.82;;;66.25;;
18659;SDS011;9459;50.254;19.014;2024-01-10T06:00:04;176.82;;;65.03;;
18659;SDS011;9459;50.254;19.014;2024-01-10T06:02:37;195.95;;;71.15;;
18659;SDS011;9459;50.254;19.014;2024-01-10T06:05:09;168.05;;;63.70;;
18659;SDS011;9459;50.254;19.014;2024-01-10T06:07:38;180.52;;;68.53;;
18659;SDS011;9459;50.254;19.014;2024-01-10T06:10:08;178.10;;;62.33;;
18659;SDS011;9459;50.254;19.014;2024-01-10T06:12:37;162.73;;;62.33;;
18659;SDS011;9459;50.254;19.014;2024-01-10T06:15:06;172.40;;;63.80;;
18659;SDS011;9459;50.254;19.014;2024-01-10T06:17:36;171.18;;;63.55;;
18659;SDS011;9459;50.254;19.014;2024-01-10T06:20:05;179.90;;;67.63;;
18659;SDS011;9459;50.254;19.014;2024-01-10T06:22:36;179.77;;;66.63;;
18659;SDS011;9459;50.254;19.014;2024-01-10T06:25:05;172.93;;;65.55;;
18659;SDS011;9459;50.254;19.014;2024-01-10T06:27:34;163.25;;;62.40;;
18659;SDS011;9459;50.254;19.014;2024-01-10T06:30:02;173.77;;;63.58;;
18659;SDS011;9459;50.254;19.014;2024-01-10T06:32:31;157.77;;;60.42;;
18659;SDS011;9459;50.254;19.014;2024-01-10T06:37:31;167.32;;;62.80;;
18659;SDS011;9459;50.254;19.014;2024-01-10T06:40:05;190.05;;;67.38;;
18659;SDS011;9459;50.254;19.014;2024-01-10T06:42:34;194.57;;;71.75;;
18659;SDS011;9459;50.254;19.014;2024-01-10T06:45:04;180.02;;;70.07;;
18659;SDS011;9459;50.254;19.014;2024-01-10T06:47:34;171.88;;;65.78;;
18659;SDS011;9459;50.254;19.014;2024-01-10T06:50:05;162.43;;;61.40;;
18659;SDS011;9459;50.254;19.014;2024-01-10T06:52:36;174.90;;;64.32;;
18659;SDS011;9459;50.254;19.014;2024-01-10T06:55:06;194.02;;;69.93;;
18659;SDS011;9459;50.254;19.014;2024-01-10T06:57:36;181.20;;;66.63;;
18659;SDS011;9459;50.254;19.014;2024-01-10T07:00:05;183.02;;;65.60;;
18659;SDS011;9459;50.254;19.014;2024-01-10T07:02:38;176.40;;;67.10;;
18659;SDS011;9459;50.254;19.014;2024-01-10T07:05:07;172.20;;;64.30;;
18659;SDS011;9459;50.254;19.014;2024-01-10T07:07:36;172.25;;;65.18;;
18659;SDS011;9459;50.254;19.014;2024-01-10T07:10:06;178.55;;;68.13;;
18659;SDS011;9459;50.254;19.014;2024-01-10T07:12:35;166.30;;;62.25;;
18659;SDS011;9459;50.254;19.014;2024-01-10T07:15:04;170.77;;;63.90;;
18659;SDS011;9459;50.254;19.014;2024-01-10T07:17:34;128.40;;;48.13;;
18659;SDS011;9459;50.254;19.014;2024-01-10T07:20:03;168.27;;;63.10;;
18659;SDS011;9459;50.254;19.014;2024-01-10T07:22:32;165.15;;;63.55;;
18659;SDS011;9459;50.254;19.014;2024-01-10T07:25:02;173.27;;;67.13;;
18659;SDS011;9459;50.254;19.014;2024-01-10T07:27:35;172.50;;;65.05;;
18659;SDS011;9459;50.254;19.014;2024-01-10T07:32:40;165.80;;;65.22;;
18659;SDS011;9459;50.254;19.014;2024-01-10T07:35:09;162.93;;;63.83;;
18659;SDS011;9459;50.254;19.014;2024-01-10T07:37:39;168.43;;;68.13;;
18659;SDS011;9459;50.254;19.014;2024-01-10T07:40:08;168.77;;;66.80;;
18659;SDS011;9459;50.254;19.014;2024-01-10T07:42:39;174.38;;;68.57;;
18659;SDS011;9459;50.254;19.014;2024-01-10T07:45:08;171.10;;;71.65;;
18659;SDS011;9459;50.254;19.014;2024-01-10T07:47:38;164.77;;;73.20;;
18659;SDS011;9459;50.254;19.014;2024-01-10T07:50:07;196.15;;;88.75;;
18659;SDS011;9459;50.254;19.014;2024-01-10T07:52:36;181.15;;;81.82;;
18659;SDS011;9459;50.254;19.014;2024-01-10T07:55:05;179.13;;;78.05;;
18659;SDS011;9459;50.254;19.014;2024-01-10T07:57:35;177.35;;;79.32;;
18659;SDS011;9459;50.254;19.014;2024-01-10T08:00:06;185.30;;;79.78;;
18659;SDS011;9459;50.254;19.014;2024-01-10T08:02:37;176.02;;;80.43;;
18659;SDS011;9459;50.254;19.014;2024-01-10T08:05:07;173.15;;;76.75;;
18659;SDS011;9459;50.254;19.014;2024-01-10T08:07:36;172.52;;;79.50;;
18659;SDS011;9459;50.254;19.014;2024-01-10T08:10:06;171.57;;;76.72;;
18659;SDS011;9459;50.254;19.014;2024-01-10T08:12:37;160.35;;;73.13;;
18659;SDS011;9459;50.254;19.014;2024-01-10T08:15:08;168.65;;;75.53;;
18659;SDS011;9459;50.254;19.014;2024-01-10T08:17:37;160.50;;;75.95;;
18659;SDS011;9459;50.254;19.014;2024-01-10T08:20:07;157.38;;;75.95;;
18659;SDS011;9459;50.254;19.014;2024-01-10T08:22:38;174.20;;;79.65;;
18659;SDS011;9459;50.254;19.014;2024-01-10T08:25:08;158.15;;;77.63;;
18659;SDS011;9459;50.254;19.014;2024-01-10T08:27:37;157.55;;;73.95;;
18659;SDS011;9459;50.254;19.014;2024-01-10T08:30:10;162.27;;;78.82;;
18659;SDS011;9459;50.254;19.014;2024-01-10T08:32:39;178.15;;;83.93;;
18659;SDS011;9459;50.254;19.014;2024-01-10T08:35:07;166.43;;;82.35;;
18659;SDS011;9459;50.254;19.014;2024-01-10T08:37:36;157.05;;;80.25;;
18659;SDS011;9459;50.254;19.014;2024-01-10T08:40:08;150.25;;;74.95;;
18659;SDS011;9459;50.254;19.014;2024-01-10T08:45:08;155.32;;;74.75;;
18659;SDS011;9459;50.254;19.014;2024-01-10T08:47:38;173.10;;;87.68;;
18659;SDS011;9459;50.254;19.014;2024-01-10T08:50:07;158.00;;;77.63;;
18659;SDS011;9459;50.254;19.014;2024-01-10T08:52:37;162.80;;;86.50;;
18659;SDS011;9459;50.254;19.014;2024-01-10T08:55:06;152.52;;;79.07;;
18659;SDS011;9459;50.254;19.014;2024-01-10T08:57:39;151.25;;;80.35;;
18659;SDS011;9459;50.254;19.014;2024-01-10T09:00:10;157.00;;;81.07;;
18659;SDS011;9459;50.254;19.014;2024-01-10T09:02:44;155.05;;;81.07;;
18659;SDS011;9459;50.254;19.014;2024-01-10T09:05:13;151.93;;;81.10;;
18659;SDS011;9459;50.254;19.014;2024-01-10T09:07:42;155.85;;;83.07;;
18659;SDS011;9459;50.254;19.014;2024-01-10T09:10:11;161.95;;;84.57;;
18659;SDS011;9459;50.254;19.014;2024-01-10T09:12:39;147.98;;;79.72;;
18659;SDS011;9459;50.254;19.014;2024-01-10T09:15:11;144.88;;;79.57;;
18659;SDS011;9459;50.254;19.014;2024-01-10T09:17:41;147.55;;;78.68;;
18659;SDS011;9459;50.254;19.014;2024-01-10T09:20:10;141.70;;;78.32;;
18659;SDS011;9459;50.254;19.014;2024-01-10T09:22:39;138.90;;;76.22;;
18659;SDS011;9459;50.254;19.014;2024-01-10T09:25:09;145.70;;;81.18;;
18659;SDS011;9459;50.254;19.014;2024-01-10T09:27:39;140.30;;;76.88;;
18659;SDS011;9459;50.254;19.014;2024-01-10T09:30:09;141.18;;;77.75;;
18659;SDS011;9459;50.254;19.014;2024-01-10T09:32:39;149.35;;;81.93;;
18659;SDS011;9459;50.254;19.014;2024-01-10T09:35:09;153.30;;;88.28;;
18659;SDS011;9459;50.254;19.014;2024-01-10T09:37:37;138.77;;;78.45;;
18659;SDS011;9459;50.254;19.014;2024-01-10T09:40:07;127.35;;;75.72;;
18659;SDS011;9459;50.254;19.014;2024-01-10T09:42:39;148.75;;;88.45;;
18659;SDS011;9459;50.254;19.014;2024-01-10T09:45:08;141.13;;;81.43;;
18659;SDS011;9459;50.254;19.014;2024-01-10T09:47:40;139.75;;;79.10;;
18659;SDS011;9459;50.254;19.014;2024-01-10T09:50:11;141.18;;;80.18;;
18659;SDS011;9459;50.254;19.014;2024-01-10T09:52:41;137.60;;;78.85;;
18659;SDS011;9459;50.254;19.014;2024-01-10T09:55:20;132.50;;;80.15;;
18659;SDS011;9459;50.254;19.014;2024-01-10T09:57:51;131.48;;;75.57;;
18659;SDS011;9459;50.254;19.014;2024-01-10T10:00:20;164.05;;;105.90;;
18659;SDS011;9459;50.254;19.014;2024-01-10T10:02:53;139.77;;;87.28;;
18659;SDS011;9459;50.254;19.014;2024-01-10T10:05:25;150.23;;;90.95;;
18659;SDS011;9459;50.254;19.014;2024-01-10T10:07:53;124.95;;;75.65;;
18659;SDS011;9459;50.254;19.014;2024-01-10T10:10:23;169.55;;;112.00;;
18659;SDS011;9459;50.254;19.014;2024-01-10T10:12:52;120.65;;;74.40;;
18659;SDS011;9459;50.254;19.014;2024-01-10T10:15:21;135.52;;;83.03;;
18659;SDS011;9459;50.254;19.014;2024-01-10T10:17:54;152.75;;;95.38;;
18659;SDS011;9459;50.254;19.014;2024-01-10T10:20:24;141.18;;;89.00;;
18659;SDS011;9459;50.254;19.014;2024-01-10T10:22:59;121.03;;;75.70;;
18659;SDS011;9459;50.254;19.014;2024-01-10T10:25:30;124.85;;;77.22;;
18659;SDS011;9459;50.254;19.014;2024-01-10T10:28:00;145.18;;;89.40;;
18659;SDS011;9459;50.254;19.014;2024-01-10T10:30:30;134.80;;;81.25;;
18659;SDS011;9459;50.254;19.014;2024-01-10T10:33:01;127.53;;;79.43;;
18659;SDS011;9459;50.254;19.014;2024-01-10T10:35:32;146.85;;;83.85;;
18659;SDS011;9459;50.254;19.014;2024-01-10T10:38:07;141.07;;;83.57;;
18659;SDS011;9459;50.254;19.014;2024-01-10T10:40:37;138.77;;;82.50;;
18659;SDS011;9459;50.254;19.014;2024-01-10T10:43:06;136.45;;;79.60;;
18659;SDS011;9459;50.254;19.014;2024-01-10T10:45:41;130.98;;;80.20;;
18659;SDS011;9459;50.254;19.014;2024-01-10T10:48:17;130.70;;;78.07;;
18659;SDS011;9459;50.254;19.014;2024-01-10T10:50:50;126.93;;;77.57;;
18659;SDS011;9459;50.254;19.014;2024-01-10T10:53:25;120.55;;;74.40;;
18659;SDS011;9459;50.254;19.014;2024-01-10T10:55:56;126.55;;;78.20;;
18659;SDS011;9459;50.254;19.014;2024-01-10T10:58:25;131.27;;;79.88;;
18659;SDS011;9459;50.254;19.014;2024-01-10T11:00:55;164.00;;;91.90;;
18659;SDS011;9459;50.254;19.014;2024-01-10T11:03:25;135.48;;;79.28;;
18659;SDS011;9459;50.254;19.014;2024-01-10T11:05:56;125.90;;;79.22;;
18659;SDS011;9459;50.254;19.014;2024-01-10T11:08:27;127.43;;;83.80;;
18659;SDS011;9459;50.254;19.014;2024-01-10T11:10:57;138.27;;;86.60;;
18659;SDS011;9459;50.254;19.014;2024-01-10T11:13:27;134.07;;;89.38;;
18659;SDS011;9459;50.254;19.014;2024-01-10T11:16:09;113.57;;;74.65;;
18659;SDS011;9459;50.254;19.014;2024-01-10T11:19:06;111.40;;;71.63;;
18659;SDS011;9459;50.254;19.014;2024-01-10T11:21:56;118.70;;;77.05;;
18659;SDS011;9459;50.254;19.014;2024-01-10T11:24:29;125.32;;;78.30;;
18659;SDS011;9459;50.254;19.014;2024-01-10T11:27:06;119.85;;;76.30;;
18659;SDS011;9459;50.254;19.014;2024-01-10T11:29:37;120.22;;;75.00;;
18659;SDS011;9459;50.254;19.014;2024-01-10T11:32:07;114.18;;;72.15;;
18659;SDS011;9459;50.254;19.014;2024-01-10T11:34:52;115.63;;;71.78;;
18659;SDS011;9459;50.254;19.014;2024-01-10T11:37:22;113.13;;;69.82;;
18659;SDS011;9459;50.254;19.014;2024-01-10T11:39:51;112.47;;;68.03;;
18659;SDS011;9459;50.254;19.014;2024-01-10T11:42:23;109.93;;;68.40;;
18659;SDS011;9459;50.254;19.014;2024-01-10T11:44:52;98.38;;;62.13;;
18659;SDS011;9459;50.254;19.014;2024-01-10T11:47:21;111.38;;;67.40;;
18659;SDS011;9459;50.254;19.014;2024-01-10T11:49:57;119.78;;;71.68;;
18659;SDS011;9459;50.254;19.014;2024-01-10T11:52:31;113.03;;;68.55;;
18659;SDS011;9459;50.254;19.014;2024-01-10T11:55:01;116.00;;;68.63;;
18659;SDS011;9459;50.254;19.014;2024-01-10T11:57:31;132.65;;;80.95;;
18659;SDS011;9459;50.254;19.014;2024-01-10T11:59:59;119.22;;;70.28;;
18659;SDS011;9459;50.254;19.014;2024-01-10T12:02:31;131.90;;;78.10;;
18659;SDS011;9459;50.254;19.014;2024-01-10T12:05:02;127.22;;;77.50;;
18659;SDS011;9459;50.254;19.014;2024-01-10T12:07:31;123.63;;;77.75;;
18659;SDS011;9459;50.254;19.014;2024-01-10T12:10:00;125.25;;;78.20;;
18659;SDS011;9459;50.254;19.014;2024-01-10T12:12:32;122.43;;;74.38;;
18659;SDS011;9459;50.254;19.014;2024-01-10T12:15:01;119.50;;;75.28;;
18659;SDS011;9459;50.254;19.014;2024-01-10T12:17:30;118.90;;;72.80;;
18659;SDS011;9459;50.254;19.014;2024-01-10T12:19:59;121.05;;;70.97;;
18659;SDS011;9459;50.254;19.014;2024-01-10T12:22:30;118.40;;;71.32;;
18659;SDS011;9459;50.254;19.014;2024-01-10T12:25:03;128.00;;;74.57;;
18659;SDS011;9459;50.254;19.014;2024-01-10T12:27:32;122.22;;;73.13;;
18659;SDS011;9459;50.254;19.014;2024-01-10T12:30:01;120.07;;;69.82;;
18659;SDS011;9459;50.254;19.014;2024-01-10T12:32:31;134.82;;;77.47;;
18659;SDS011;9459;50.254;19.014;2024-01-10T12:35:01;139.20;;;77.00;;
18659;SDS011;9459;50.254;19.014;2024-01-10T12:37:32;160.65;;;86.10;;
18659;SDS011;9459;50.254;19.014;2024-01-10T12:40:00;158.38;;;84.93;;
18659;SDS011;9459;50.254;19.014;2024-01-10T12:42:37;151.70;;;80.00;;
18659;SDS011;9459;50.254;19.014;2024-01-10T12:45:19;173.02;;;90.75;;
18659;SDS011;9459;50.254;19.014;2024-01-10T12:47:48;177.77;;;92.53;;
18659;SDS011;9459;50.254;19.014;2024-01-10T12:50:18;162.02;;;83.20;;
18659;SDS011;9459;50.254;19.014;2024-01-10T12:52:48;166.07;;;80.45;;
18659;SDS011;9459;50.254;19.014;2024-01-10T12:55:17;172.77;;;84.50;;
18659;SDS011;9459;50.254;19.014;2024-01-10T12:57:46;155.38;;;77.13;;
18659;SDS011;9459;50.254;19.014;2024-01-10T13:00:17;162.73;;;79.93;;
18659;SDS011;9459;50.254;19.014;2024-01-10T13:02:46;146.88;;;73.78;;
18659;SDS011;9459;50.254;19.014;2024-01-10T13:05:16;546.83;;;313.75;;
18659;SDS011;9459;50.254;19.014;2024-01-10T13:07:45;183.65;;;101.15;;
18659;SDS011;9459;50.254;19.014;2024-01-10T13:10:16;168.43;;;90.95;;
18659;SDS011;9459;50.254;19.014;2024-01-10T13:12:44;143.65;;;70.72;;
18659;SDS011;9459;50.254;19.014;2024-01-10T13:15:14;138.55;;;70.15;;
18659;SDS011;9459;50.254;19.014;2024-01-10T13:17:43;150.73;;;71.35;;
18659;SDS011;9459;50.254;19.014;2024-01-10T13:20:13;149.95;;;70.10;;
18659;SDS011;9459;50.254;19.014;2024-01-10T13:22:43;143.77;;;68.88;;
18659;SDS011;9459;50.254;19.014;2024-01-10T13:25:15;118.63;;;59.42;;
18659;SDS011;9459;50.254;19.014;2024-01-10T13:27:49;110.30;;;54.05;;
18659;SDS011;9459;50.254;19.014;2024-01-10T13:30:18;143.85;;;72.57;;
18659;SDS011;9459;50.254;19.014;2024-01-10T13:32:48;149.95;;;75.85;;
18659;SDS011;9459;50.254;19.014;2024-01-10T13:35:16;111.05;;;56.55;;
18659;SDS011;9459;50.254;19.014;2024-01-10T13:37:45;89.32;;;45.55;;
18659;SDS011;9459;50.254;19.014;2024-01-10T13:40:14;93.22;;;45.97;;
18659;SDS011;9459;50.254;19.014;2024-01-10T13:42:44;94.22;;;46.25;;
18659;SDS011;9459;50.254;19.014;2024-01-10T13:45:13;90.43;;;44.20;;
18659;SDS011;9459;50.254;19.014;2024-01-10T13:47:42;94.07;;;45.38;;
18659;SDS011;9459;50.254;19.014;2024-01-10T13:50:12;95.13;;;46.55;;
18659;SDS011;9459;50.254;19.014;2024-01-10T13:52:41;96.50;;;47.47;;
18659;SDS011;9459;50.254;19.014;2024-01-10T13:55:10;103.68;;;50.72;;
18659;SDS011;9459;50.254;19.014;2024-01-10T13:57:39;104.90;;;49.95;;
18659;SDS011;9459;50.254;19.014;2024-01-10T14:00:10;96.07;;;47.08;;
18659;SDS011;9459;50.254;19.014;2024-01-10T14:02:42;109.80;;;57.10;;
18659;SDS011;9459;50.254;19.014;2024-01-10T14:05:11;100.65;;;49.20;;
18659;SDS011;9459;50.254;19.014;2024-01-10T14:07:41;117.05;;;57.58;;
18659;SDS011;9459;50.254;19.014;2024-01-10T14:10:11;128.13;;;62.42;;
18659;SDS011;9459;50.254;19.014;2024-01-10T14:12:40;173.02;;;84.65;;
18659;SDS011;9459;50.254;19.014;2024-01-10T14:15:10;204.07;;;96.97;;
18659;SDS011;9459;50.254;19.014;2024-01-10T14:17:39;218.80;;;105.88;;
18659;SDS011;9459;50.254;19.014;2024-01-10T14:20:08;239.40;;;112.00;;
18659;SDS011;9459;50.254;19.014;2024-01-10T14:22:38;223.48;;;105.78;;
18659;SDS011;9459;50.254;19.014;2024-01-10T14:25:09;235.95;;;106.78;;
18659;SDS011;9459;50.254;19.014;2024-01-10T14:27:38;218.05;;;102.18;;
18659;SDS011;9459;50.254;19.014;2024-01-10T14:30:06;218.48;;;100.28;;
18659;SDS011;9459;50.254;19.014;2024-01-10T14:32:40;229.68;;;109.10;;